Valemount, Canada
Current Conditions -  °F | °C
As of 1:00 PM on Sunday 23 Nov 2014 (Local Time) from CYWL Reporting Station
Overcast Overcast  
Wind Chill: -2°   Ceiling: 6000
Heat Index:   Visibility: 15mi
Dew Point: -3°   Wind: 7mph
Humidity: 75%   Direction: 110°ESE
Pressure: 29.76"   Gusts: NA
Location:  52.83°N, 119.25°W
Report Text: CYWL 232100Z 11006KT 15SM BKN060 OVC100 01/M03 A2976 RMK SC7AC1 VIRGA ALQDS SLP115
Loading
Personal Weather Stations






























Interactive Weather Map New forecast layout! Learn more

10-Day Weather Forecast

Advertisements
Track Severe Weather on mobile